sensor_id;sensor_type;location;lat;lon;timestamp;P1;durP1;ratioP1;P2;durP2;ratioP2
21095;SDS011;10706;49.036;12.112;2022-08-19T00:01:20;34.45;;;22.08;;
21095;SDS011;10706;49.036;12.112;2022-08-19T00:03:47;39.30;;;22.98;;
21095;SDS011;10706;49.036;12.112;2022-08-19T00:06:16;41.45;;;24.17;;
21095;SDS011;10706;49.036;12.112;2022-08-19T00:08:42;44.15;;;25.40;;
21095;SDS011;10706;49.036;12.112;2022-08-19T00:11:09;41.15;;;25.13;;
21095;SDS011;10706;49.036;12.112;2022-08-19T00:13:35;44.08;;;27.45;;
21095;SDS011;10706;49.036;12.112;2022-08-19T00:16:02;42.22;;;25.85;;
21095;SDS011;10706;49.036;12.112;2022-08-19T00:18:30;43.58;;;27.17;;
21095;SDS011;10706;49.036;12.112;2022-08-19T00:20:57;48.17;;;28.25;;
21095;SDS011;10706;49.036;12.112;2022-08-19T00:23:24;42.63;;;27.52;;
21095;SDS011;10706;49.036;12.112;2022-08-19T00:25:50;46.05;;;27.83;;
21095;SDS011;10706;49.036;12.112;2022-08-19T00:28:17;44.03;;;27.25;;
21095;SDS011;10706;49.036;12.112;2022-08-19T00:30:44;43.08;;;26.13;;
21095;SDS011;10706;49.036;12.112;2022-08-19T00:33:10;41.83;;;25.67;;
21095;SDS011;10706;49.036;12.112;2022-08-19T00:35:36;40.95;;;26.55;;
21095;SDS011;10706;49.036;12.112;2022-08-19T00:38:03;37.42;;;25.20;;
21095;SDS011;10706;49.036;12.112;2022-08-19T00:40:31;40.47;;;26.10;;
21095;SDS011;10706;49.036;12.112;2022-08-19T00:42:57;44.13;;;26.73;;
21095;SDS011;10706;49.036;12.112;2022-08-19T00:45:26;41.47;;;25.05;;
21095;SDS011;10706;49.036;12.112;2022-08-19T00:47:55;43.30;;;25.15;;
21095;SDS011;10706;49.036;12.112;2022-08-19T00:50:21;40.45;;;24.77;;
21095;SDS011;10706;49.036;12.112;2022-08-19T00:52:49;39.50;;;24.38;;
21095;SDS011;10706;49.036;12.112;2022-08-19T00:55:18;34.85;;;23.27;;
21095;SDS011;10706;49.036;12.112;2022-08-19T00:57:58;38.50;;;23.70;;
21095;SDS011;10706;49.036;12.112;2022-08-19T01:00:33;39.85;;;24.25;;
21095;SDS011;10706;49.036;12.112;2022-08-19T01:03:02;38.08;;;23.38;;
21095;SDS011;10706;49.036;12.112;2022-08-19T01:05:32;32.42;;;21.92;;
21095;SDS011;10706;49.036;12.112;2022-08-19T01:08:00;34.55;;;22.10;;
21095;SDS011;10706;49.036;12.112;2022-08-19T01:10:30;38.28;;;23.70;;
21095;SDS011;10706;49.036;12.112;2022-08-19T01:13:00;36.40;;;23.02;;
21095;SDS011;10706;49.036;12.112;2022-08-19T01:15:32;37.53;;;24.83;;
21095;SDS011;10706;49.036;12.112;2022-08-19T01:18:09;40.92;;;26.08;;
21095;SDS011;10706;49.036;12.112;2022-08-19T01:20:39;38.47;;;24.20;;
21095;SDS011;10706;49.036;12.112;2022-08-19T01:23:06;42.67;;;25.67;;
21095;SDS011;10706;49.036;12.112;2022-08-19T01:25:40;36.35;;;24.77;;
21095;SDS011;10706;49.036;12.112;2022-08-19T01:28:19;35.40;;;23.63;;
21095;SDS011;10706;49.036;12.112;2022-08-19T01:30:50;36.25;;;23.75;;
21095;SDS011;10706;49.036;12.112;2022-08-19T01:33:18;35.30;;;22.70;;
21095;SDS011;10706;49.036;12.112;2022-08-19T01:35:44;35.30;;;22.45;;
21095;SDS011;10706;49.036;12.112;2022-08-19T01:38:23;36.15;;;23.02;;
21095;SDS011;10706;49.036;12.112;2022-08-19T01:40:51;37.33;;;22.73;;
21095;SDS011;10706;49.036;12.112;2022-08-19T01:43:18;34.92;;;21.52;;
21095;SDS011;10706;49.036;12.112;2022-08-19T01:45:44;40.00;;;23.52;;
21095;SDS011;10706;49.036;12.112;2022-08-19T01:48:11;39.70;;;23.20;;
21095;SDS011;10706;49.036;12.112;2022-08-19T01:50:38;32.95;;;22.50;;
21095;SDS011;10706;49.036;12.112;2022-08-19T01:53:04;38.53;;;23.92;;
21095;SDS011;10706;49.036;12.112;2022-08-19T01:55:38;34.28;;;23.10;;
21095;SDS011;10706;49.036;12.112;2022-08-19T01:58:07;42.47;;;23.02;;
21095;SDS011;10706;49.036;12.112;2022-08-19T02:00:42;35.17;;;23.50;;
21095;SDS011;10706;49.036;12.112;2022-08-19T02:03:08;33.45;;;22.98;;
21095;SDS011;10706;49.036;12.112;2022-08-19T02:05:36;30.45;;;21.95;;
21095;SDS011;10706;49.036;12.112;2022-08-19T02:08:02;36.28;;;23.70;;
21095;SDS011;10706;49.036;12.112;2022-08-19T02:10:28;33.17;;;22.15;;
21095;SDS011;10706;49.036;12.112;2022-08-19T02:12:54;35.17;;;22.42;;
21095;SDS011;10706;49.036;12.112;2022-08-19T02:15:20;43.10;;;24.83;;
21095;SDS011;10706;49.036;12.112;2022-08-19T02:17:46;34.17;;;23.75;;
21095;SDS011;10706;49.036;12.112;2022-08-19T02:20:13;40.78;;;24.33;;
21095;SDS011;10706;49.036;12.112;2022-08-19T02:22:40;37.47;;;23.13;;
21095;SDS011;10706;49.036;12.112;2022-08-19T02:25:08;35.65;;;24.17;;
21095;SDS011;10706;49.036;12.112;2022-08-19T02:27:38;38.50;;;24.98;;
21095;SDS011;10706;49.036;12.112;2022-08-19T02:30:07;37.60;;;24.83;;
21095;SDS011;10706;49.036;12.112;2022-08-19T02:32:38;32.65;;;21.15;;
21095;SDS011;10706;49.036;12.112;2022-08-19T02:35:04;36.42;;;23.40;;
21095;SDS011;10706;49.036;12.112;2022-08-19T02:37:31;34.88;;;22.73;;
21095;SDS011;10706;49.036;12.112;2022-08-19T02:40:14;34.28;;;22.20;;
21095;SDS011;10706;49.036;12.112;2022-08-19T02:42:42;31.83;;;22.58;;
21095;SDS011;10706;49.036;12.112;2022-08-19T02:45:10;32.72;;;21.33;;
21095;SDS011;10706;49.036;12.112;2022-08-19T02:47:37;34.75;;;21.77;;
21095;SDS011;10706;49.036;12.112;2022-08-19T02:50:03;45.97;;;24.35;;
21095;SDS011;10706;49.036;12.112;2022-08-19T02:52:31;35.53;;;22.70;;
21095;SDS011;10706;49.036;12.112;2022-08-19T02:54:58;37.63;;;23.40;;
21095;SDS011;10706;49.036;12.112;2022-08-19T02:57:25;34.47;;;22.08;;
21095;SDS011;10706;49.036;12.112;2022-08-19T02:59:51;34.10;;;21.65;;
21095;SDS011;10706;49.036;12.112;2022-08-19T03:02:17;33.92;;;22.58;;
21095;SDS011;10706;49.036;12.112;2022-08-19T03:04:43;35.50;;;23.58;;
21095;SDS011;10706;49.036;12.112;2022-08-19T03:07:09;35.05;;;22.73;;
21095;SDS011;10706;49.036;12.112;2022-08-19T03:09:39;33.97;;;21.75;;
21095;SDS011;10706;49.036;12.112;2022-08-19T03:12:05;33.20;;;22.42;;
21095;SDS011;10706;49.036;12.112;2022-08-19T03:14:32;35.47;;;21.67;;
21095;SDS011;10706;49.036;12.112;2022-08-19T03:16:58;35.05;;;22.08;;
21095;SDS011;10706;49.036;12.112;2022-08-19T03:19:24;35.80;;;22.90;;
21095;SDS011;10706;49.036;12.112;2022-08-19T03:21:51;32.67;;;22.17;;
21095;SDS011;10706;49.036;12.112;2022-08-19T03:24:17;36.08;;;22.67;;
21095;SDS011;10706;49.036;12.112;2022-08-19T03:26:46;31.67;;;20.67;;
21095;SDS011;10706;49.036;12.112;2022-08-19T03:29:16;31.48;;;20.80;;
21095;SDS011;10706;49.036;12.112;2022-08-19T03:31:44;35.25;;;21.35;;
21095;SDS011;10706;49.036;12.112;2022-08-19T03:34:11;30.75;;;20.13;;
21095;SDS011;10706;49.036;12.112;2022-08-19T03:36:44;32.72;;;19.10;;
21095;SDS011;10706;49.036;12.112;2022-08-19T03:39:11;29.88;;;19.33;;
21095;SDS011;10706;49.036;12.112;2022-08-19T03:41:38;34.03;;;20.15;;
21095;SDS011;10706;49.036;12.112;2022-08-19T03:44:06;26.63;;;18.02;;
21095;SDS011;10706;49.036;12.112;2022-08-19T03:46:33;30.05;;;18.77;;
21095;SDS011;10706;49.036;12.112;2022-08-19T03:49:01;32.03;;;18.60;;
21095;SDS011;10706;49.036;12.112;2022-08-19T03:51:34;29.98;;;19.17;;
21095;SDS011;10706;49.036;12.112;2022-08-19T03:54:04;28.05;;;18.25;;
21095;SDS011;10706;49.036;12.112;2022-08-19T03:56:34;30.33;;;16.50;;
21095;SDS011;10706;49.036;12.112;2022-08-19T03:59:02;26.27;;;16.17;;
21095;SDS011;10706;49.036;12.112;2022-08-19T04:01:28;25.23;;;15.88;;
21095;SDS011;10706;49.036;12.112;2022-08-19T04:03:57;26.38;;;16.65;;
21095;SDS011;10706;49.036;12.112;2022-08-19T04:06:25;28.10;;;17.50;;
21095;SDS011;10706;49.036;12.112;2022-08-19T04:08:58;27.17;;;16.95;;
21095;SDS011;10706;49.036;12.112;2022-08-19T04:11:39;27.77;;;17.55;;
21095;SDS011;10706;49.036;12.112;2022-08-19T04:14:12;31.15;;;18.17;;
21095;SDS011;10706;49.036;12.112;2022-08-19T04:16:42;29.17;;;18.13;;
21095;SDS011;10706;49.036;12.112;2022-08-19T04:19:09;27.27;;;18.27;;
21095;SDS011;10706;49.036;12.112;2022-08-19T04:21:36;27.98;;;18.33;;
21095;SDS011;10706;49.036;12.112;2022-08-19T04:24:02;27.05;;;18.13;;
21095;SDS011;10706;49.036;12.112;2022-08-19T04:26:30;30.05;;;16.42;;
21095;SDS011;10706;49.036;12.112;2022-08-19T04:28:59;24.92;;;15.27;;
21095;SDS011;10706;49.036;12.112;2022-08-19T04:31:30;25.27;;;16.95;;
21095;SDS011;10706;49.036;12.112;2022-08-19T04:34:01;26.70;;;17.05;;
21095;SDS011;10706;49.036;12.112;2022-08-19T04:36:32;26.92;;;16.88;;
21095;SDS011;10706;49.036;12.112;2022-08-19T04:39:03;28.02;;;18.05;;
21095;SDS011;10706;49.036;12.112;2022-08-19T04:41:36;27.17;;;17.85;;
21095;SDS011;10706;49.036;12.112;2022-08-19T04:44:21;31.23;;;17.00;;
21095;SDS011;10706;49.036;12.112;2022-08-19T04:46:48;27.98;;;18.23;;
21095;SDS011;10706;49.036;12.112;2022-08-19T04:49:16;25.95;;;16.20;;
21095;SDS011;10706;49.036;12.112;2022-08-19T04:51:47;29.27;;;18.35;;
21095;SDS011;10706;49.036;12.112;2022-08-19T04:54:15;27.17;;;17.98;;
21095;SDS011;10706;49.036;12.112;2022-08-19T04:56:43;29.05;;;17.88;;
21095;SDS011;10706;49.036;12.112;2022-08-19T04:59:09;29.02;;;17.83;;
21095;SDS011;10706;49.036;12.112;2022-08-19T05:01:35;30.17;;;18.70;;
21095;SDS011;10706;49.036;12.112;2022-08-19T05:04:03;25.83;;;16.92;;
21095;SDS011;10706;49.036;12.112;2022-08-19T05:06:31;27.73;;;17.17;;
21095;SDS011;10706;49.036;12.112;2022-08-19T05:08:59;29.52;;;17.30;;
21095;SDS011;10706;49.036;12.112;2022-08-19T05:11:30;27.45;;;16.55;;
21095;SDS011;10706;49.036;12.112;2022-08-19T05:13:59;29.25;;;16.58;;
21095;SDS011;10706;49.036;12.112;2022-08-19T05:16:25;27.63;;;16.15;;
21095;SDS011;10706;49.036;12.112;2022-08-19T05:18:52;25.88;;;15.93;;
21095;SDS011;10706;49.036;12.112;2022-08-19T05:21:39;26.80;;;16.05;;
21095;SDS011;10706;49.036;12.112;2022-08-19T05:24:26;25.58;;;15.80;;
21095;SDS011;10706;49.036;12.112;2022-08-19T05:26:54;25.23;;;15.90;;
21095;SDS011;10706;49.036;12.112;2022-08-19T05:29:22;24.40;;;15.40;;
21095;SDS011;10706;49.036;12.112;2022-08-19T05:31:50;27.33;;;14.90;;
21095;SDS011;10706;49.036;12.112;2022-08-19T05:34:19;24.33;;;15.40;;
21095;SDS011;10706;49.036;12.112;2022-08-19T05:36:49;28.17;;;15.63;;
21095;SDS011;10706;49.036;12.112;2022-08-19T05:39:21;24.70;;;16.10;;
21095;SDS011;10706;49.036;12.112;2022-08-19T05:41:53;23.02;;;14.48;;
21095;SDS011;10706;49.036;12.112;2022-08-19T05:44:23;25.00;;;15.32;;
21095;SDS011;10706;49.036;12.112;2022-08-19T05:46:51;24.30;;;15.15;;
21095;SDS011;10706;49.036;12.112;2022-08-19T05:49:18;26.33;;;15.35;;
21095;SDS011;10706;49.036;12.112;2022-08-19T05:51:47;28.75;;;15.82;;
21095;SDS011;10706;49.036;12.112;2022-08-19T05:54:14;25.85;;;16.30;;
21095;SDS011;10706;49.036;12.112;2022-08-19T05:56:40;23.52;;;15.38;;
21095;SDS011;10706;49.036;12.112;2022-08-19T05:59:08;27.63;;;16.00;;
21095;SDS011;10706;49.036;12.112;2022-08-19T06:01:40;27.88;;;16.38;;
21095;SDS011;10706;49.036;12.112;2022-08-19T06:04:10;25.52;;;16.20;;
21095;SDS011;10706;49.036;12.112;2022-08-19T06:06:36;26.30;;;16.35;;
21095;SDS011;10706;49.036;12.112;2022-08-19T06:09:03;26.40;;;15.77;;
21095;SDS011;10706;49.036;12.112;2022-08-19T06:11:40;25.17;;;15.93;;
21095;SDS011;10706;49.036;12.112;2022-08-19T06:14:09;25.83;;;15.10;;
21095;SDS011;10706;49.036;12.112;2022-08-19T06:16:40;22.95;;;14.88;;
21095;SDS011;10706;49.036;12.112;2022-08-19T06:19:09;25.52;;;15.45;;
21095;SDS011;10706;49.036;12.112;2022-08-19T06:21:42;23.90;;;14.73;;
21095;SDS011;10706;49.036;12.112;2022-08-19T06:24:12;22.88;;;14.05;;
21095;SDS011;10706;49.036;12.112;2022-08-19T06:26:41;26.25;;;16.15;;
21095;SDS011;10706;49.036;12.112;2022-08-19T06:29:13;25.15;;;15.52;;
21095;SDS011;10706;49.036;12.112;2022-08-19T06:31:42;22.45;;;15.02;;
21095;SDS011;10706;49.036;12.112;2022-08-19T06:34:12;23.73;;;15.07;;
21095;SDS011;10706;49.036;12.112;2022-08-19T06:36:39;25.63;;;15.00;;
21095;SDS011;10706;49.036;12.112;2022-08-19T06:39:14;22.75;;;14.98;;
21095;SDS011;10706;49.036;12.112;2022-08-19T06:41:53;23.23;;;14.88;;
21095;SDS011;10706;49.036;12.112;2022-08-19T06:44:23;25.67;;;14.75;;
21095;SDS011;10706;49.036;12.112;2022-08-19T06:46:53;28.02;;;14.82;;
21095;SDS011;10706;49.036;12.112;2022-08-19T06:49:20;25.27;;;15.68;;
21095;SDS011;10706;49.036;12.112;2022-08-19T06:51:47;26.73;;;16.50;;
21095;SDS011;10706;49.036;12.112;2022-08-19T06:54:18;27.30;;;16.88;;
21095;SDS011;10706;49.036;12.112;2022-08-19T06:56:44;24.88;;;14.90;;
21095;SDS011;10706;49.036;12.112;2022-08-19T06:59:11;24.90;;;14.40;;
21095;SDS011;10706;49.036;12.112;2022-08-19T07:01:44;25.08;;;14.57;;
21095;SDS011;10706;49.036;12.112;2022-08-19T07:04:17;23.55;;;14.30;;
21095;SDS011;10706;49.036;12.112;2022-08-19T07:06:46;24.30;;;15.07;;
21095;SDS011;10706;49.036;12.112;2022-08-19T07:09:13;25.92;;;14.50;;
21095;SDS011;10706;49.036;12.112;2022-08-19T07:11:45;28.63;;;15.73;;
21095;SDS011;10706;49.036;12.112;2022-08-19T07:14:14;24.33;;;15.30;;
21095;SDS011;10706;49.036;12.112;2022-08-19T07:16:43;26.52;;;15.18;;
21095;SDS011;10706;49.036;12.112;2022-08-19T07:19:11;26.38;;;15.85;;
21095;SDS011;10706;49.036;12.112;2022-08-19T07:21:37;30.40;;;17.15;;
21095;SDS011;10706;49.036;12.112;2022-08-19T07:24:03;29.80;;;17.23;;
21095;SDS011;10706;49.036;12.112;2022-08-19T07:26:31;28.30;;;17.55;;
21095;SDS011;10706;49.036;12.112;2022-08-19T07:28:58;28.00;;;16.58;;
21095;SDS011;10706;49.036;12.112;2022-08-19T07:31:27;27.58;;;17.13;;
21095;SDS011;10706;49.036;12.112;2022-08-19T07:33:54;26.88;;;16.65;;
21095;SDS011;10706;49.036;12.112;2022-08-19T07:36:22;28.35;;;16.27;;
21095;SDS011;10706;49.036;12.112;2022-08-19T07:38:57;27.48;;;16.45;;
21095;SDS011;10706;49.036;12.112;2022-08-19T07:41:26;25.17;;;15.70;;
21095;SDS011;10706;49.036;12.112;2022-08-19T07:43:54;30.55;;;15.95;;
21095;SDS011;10706;49.036;12.112;2022-08-19T07:46:20;25.30;;;14.73;;
21095;SDS011;10706;49.036;12.112;2022-08-19T07:48:47;23.48;;;14.98;;
21095;SDS011;10706;49.036;12.112;2022-08-19T07:51:19;23.70;;;15.13;;
21095;SDS011;10706;49.036;12.112;2022-08-19T07:53:46;23.85;;;14.70;;
21095;SDS011;10706;49.036;12.112;2022-08-19T07:56:15;26.35;;;15.48;;
21095;SDS011;10706;49.036;12.112;2022-08-19T07:58:44;26.38;;;15.32;;
21095;SDS011;10706;49.036;12.112;2022-08-19T08:01:14;26.98;;;15.95;;
21095;SDS011;10706;49.036;12.112;2022-08-19T08:03:51;27.90;;;15.23;;
21095;SDS011;10706;49.036;12.112;2022-08-19T08:06:37;26.88;;;15.52;;
21095;SDS011;10706;49.036;12.112;2022-08-19T08:09:23;23.95;;;15.35;;
21095;SDS011;10706;49.036;12.112;2022-08-19T08:11:56;24.63;;;15.10;;
21095;SDS011;10706;49.036;12.112;2022-08-19T08:14:27;29.20;;;16.35;;
21095;SDS011;10706;49.036;12.112;2022-08-19T08:17:05;25.02;;;14.40;;
21095;SDS011;10706;49.036;12.112;2022-08-19T08:19:31;26.65;;;14.23;;
21095;SDS011;10706;49.036;12.112;2022-08-19T08:21:58;25.02;;;14.38;;
21095;SDS011;10706;49.036;12.112;2022-08-19T08:24:27;21.20;;;12.98;;
21095;SDS011;10706;49.036;12.112;2022-08-19T08:26:59;20.70;;;12.50;;
21095;SDS011;10706;49.036;12.112;2022-08-19T08:29:29;24.17;;;12.52;;
21095;SDS011;10706;49.036;12.112;2022-08-19T08:31:55;21.92;;;12.38;;
21095;SDS011;10706;49.036;12.112;2022-08-19T08:34:21;21.02;;;11.68;;
21095;SDS011;10706;49.036;12.112;2022-08-19T08:36:47;20.85;;;11.20;;
21095;SDS011;10706;49.036;12.112;2022-08-19T08:39:14;20.92;;;11.40;;
21095;SDS011;10706;49.036;12.112;2022-08-19T08:41:51;23.25;;;11.82;;
21095;SDS011;10706;49.036;12.112;2022-08-19T08:44:39;21.90;;;11.18;;
21095;SDS011;10706;49.036;12.112;2022-08-19T08:47:23;19.17;;;10.80;;
21095;SDS011;10706;49.036;12.112;2022-08-19T08:49:57;18.10;;;10.07;;
21095;SDS011;10706;49.036;12.112;2022-08-19T08:52:31;22.23;;;11.55;;
21095;SDS011;10706;49.036;12.112;2022-08-19T08:55:11;17.40;;;10.02;;
21095;SDS011;10706;49.036;12.112;2022-08-19T08:57:52;21.20;;;10.07;;
21095;SDS011;10706;49.036;12.112;2022-08-19T09:00:35;20.40;;;9.75;;
21095;SDS011;10706;49.036;12.112;2022-08-19T09:03:09;19.00;;;9.30;;
21095;SDS011;10706;49.036;12.112;2022-08-19T09:06:02;15.63;;;8.73;;
21095;SDS011;10706;49.036;12.112;2022-08-19T09:11:19;20.95;;;11.25;;
21095;SDS011;10706;49.036;12.112;2022-08-19T09:14:15;20.77;;;10.48;;
21095;SDS011;10706;49.036;12.112;2022-08-19T09:17:18;18.45;;;9.95;;
21095;SDS011;10706;49.036;12.112;2022-08-19T09:19:57;19.00;;;11.07;;
21095;SDS011;10706;49.036;12.112;2022-08-19T09:22:38;18.08;;;10.65;;
21095;SDS011;10706;49.036;12.112;2022-08-19T09:25:09;21.92;;;11.77;;
21095;SDS011;10706;49.036;12.112;2022-08-19T09:27:40;22.83;;;12.00;;
21095;SDS011;10706;49.036;12.112;2022-08-19T09:30:07;17.67;;;10.38;;
21095;SDS011;10706;49.036;12.112;2022-08-19T09:32:40;19.45;;;10.30;;
21095;SDS011;10706;49.036;12.112;2022-08-19T09:35:07;18.33;;;10.45;;
21095;SDS011;10706;49.036;12.112;2022-08-19T09:37:34;19.92;;;10.55;;
21095;SDS011;10706;49.036;12.112;2022-08-19T09:40:00;19.60;;;11.25;;
21095;SDS011;10706;49.036;12.112;2022-08-19T09:42:26;20.27;;;10.75;;
21095;SDS011;10706;49.036;12.112;2022-08-19T09:44:52;18.65;;;10.65;;
21095;SDS011;10706;49.036;12.112;2022-08-19T09:47:17;19.55;;;9.63;;
21095;SDS011;10706;49.036;12.112;2022-08-19T09:49:43;18.48;;;10.13;;
21095;SDS011;10706;49.036;12.112;2022-08-19T09:52:09;18.92;;;10.07;;
21095;SDS011;10706;49.036;12.112;2022-08-19T09:54:36;17.30;;;9.07;;
21095;SDS011;10706;49.036;12.112;2022-08-19T09:57:05;17.23;;;8.88;;
21095;SDS011;10706;49.036;12.112;2022-08-19T09:59:31;17.02;;;9.07;;
21095;SDS011;10706;49.036;12.112;2022-08-19T10:01:57;16.00;;;8.80;;
21095;SDS011;10706;49.036;12.112;2022-08-19T10:04:23;18.63;;;8.18;;
21095;SDS011;10706;49.036;12.112;2022-08-19T10:07:08;16.77;;;8.50;;
21095;SDS011;10706;49.036;12.112;2022-08-19T10:09:34;15.90;;;8.40;;
21095;SDS011;10706;49.036;12.112;2022-08-19T10:12:00;16.88;;;8.43;;
21095;SDS011;10706;49.036;12.112;2022-08-19T10:14:28;17.58;;;8.80;;
21095;SDS011;10706;49.036;12.112;2022-08-19T10:16:54;14.65;;;8.20;;
21095;SDS011;10706;49.036;12.112;2022-08-19T10:19:21;17.08;;;8.77;;
21095;SDS011;10706;49.036;12.112;2022-08-19T10:21:47;16.42;;;8.23;;
21095;SDS011;10706;49.036;12.112;2022-08-19T10:24:13;16.88;;;8.07;;
21095;SDS011;10706;49.036;12.112;2022-08-19T10:26:40;15.25;;;8.57;;
21095;SDS011;10706;49.036;12.112;2022-08-19T10:29:09;16.83;;;8.35;;
21095;SDS011;10706;49.036;12.112;2022-08-19T10:31:36;18.48;;;8.73;;
21095;SDS011;10706;49.036;12.112;2022-08-19T10:34:02;16.75;;;9.02;;
21095;SDS011;10706;49.036;12.112;2022-08-19T10:36:30;15.82;;;8.45;;
21095;SDS011;10706;49.036;12.112;2022-08-19T10:39:00;17.63;;;8.98;;
21095;SDS011;10706;49.036;12.112;2022-08-19T10:41:38;16.30;;;9.00;;
21095;SDS011;10706;49.036;12.112;2022-08-19T10:44:06;16.80;;;8.82;;
21095;SDS011;10706;49.036;12.112;2022-08-19T10:46:36;14.93;;;7.90;;
21095;SDS011;10706;49.036;12.112;2022-08-19T10:49:06;15.38;;;8.35;;
21095;SDS011;10706;49.036;12.112;2022-08-19T10:51:34;17.70;;;9.00;;
21095;SDS011;10706;49.036;12.112;2022-08-19T10:54:19;16.50;;;8.38;;
21095;SDS011;10706;49.036;12.112;2022-08-19T10:56:45;15.35;;;8.35;;
21095;SDS011;10706;49.036;12.112;2022-08-19T10:59:27;19.10;;;8.73;;
21095;SDS011;10706;49.036;12.112;2022-08-19T11:01:58;17.23;;;9.27;;
21095;SDS011;10706;49.036;12.112;2022-08-19T11:04:25;17.98;;;9.63;;
21095;SDS011;10706;49.036;12.112;2022-08-19T11:06:51;15.38;;;8.80;;
21095;SDS011;10706;49.036;12.112;2022-08-19T11:09:23;18.27;;;9.40;;
21095;SDS011;10706;49.036;12.112;2022-08-19T11:11:52;16.25;;;9.02;;
21095;SDS011;10706;49.036;12.112;2022-08-19T11:14:18;16.67;;;9.32;;
21095;SDS011;10706;49.036;12.112;2022-08-19T11:16:46;15.73;;;8.85;;
21095;SDS011;10706;49.036;12.112;2022-08-19T11:19:13;20.00;;;9.40;;
21095;SDS011;10706;49.036;12.112;2022-08-19T11:21:44;18.50;;;9.80;;
21095;SDS011;10706;49.036;12.112;2022-08-19T11:24:17;16.92;;;9.05;;
21095;SDS011;10706;49.036;12.112;2022-08-19T11:26:46;16.65;;;9.48;;
21095;SDS011;10706;49.036;12.112;2022-08-19T11:29:14;19.27;;;10.02;;
21095;SDS011;10706;49.036;12.112;2022-08-19T11:31:43;16.50;;;8.52;;
21095;SDS011;10706;49.036;12.112;2022-08-19T11:34:12;19.55;;;9.50;;
21095;SDS011;10706;49.036;12.112;2022-08-19T11:36:47;18.42;;;9.18;;
21095;SDS011;10706;49.036;12.112;2022-08-19T11:39:17;17.13;;;9.55;;
21095;SDS011;10706;49.036;12.112;2022-08-19T11:41:45;17.90;;;10.63;;
21095;SDS011;10706;49.036;12.112;2022-08-19T11:44:11;19.75;;;10.63;;
21095;SDS011;10706;49.036;12.112;2022-08-19T11:46:39;20.00;;;10.70;;
21095;SDS011;10706;49.036;12.112;2022-08-19T11:49:06;20.90;;;11.18;;
21095;SDS011;10706;49.036;12.112;2022-08-19T11:51:34;19.90;;;10.18;;
21095;SDS011;10706;49.036;12.112;2022-08-19T11:54:00;20.30;;;11.35;;
21095;SDS011;10706;49.036;12.112;2022-08-19T11:56:28;20.10;;;11.57;;
21095;SDS011;10706;49.036;12.112;2022-08-19T11:58:54;19.17;;;11.57;;
21095;SDS011;10706;49.036;12.112;2022-08-19T12:01:22;25.25;;;12.93;;
21095;SDS011;10706;49.036;12.112;2022-08-19T12:03:51;23.98;;;12.60;;
21095;SDS011;10706;49.036;12.112;2022-08-19T12:06:21;24.20;;;13.77;;
21095;SDS011;10706;49.036;12.112;2022-08-19T12:08:53;24.10;;;14.13;;
21095;SDS011;10706;49.036;12.112;2022-08-19T12:11:21;27.45;;;14.85;;
21095;SDS011;10706;49.036;12.112;2022-08-19T12:13:48;24.45;;;13.95;;
21095;SDS011;10706;49.036;12.112;2022-08-19T12:16:17;26.05;;;14.48;;
21095;SDS011;10706;49.036;12.112;2022-08-19T12:18:48;31.42;;;16.35;;
21095;SDS011;10706;49.036;12.112;2022-08-19T12:21:16;28.33;;;16.65;;
21095;SDS011;10706;49.036;12.112;2022-08-19T12:23:52;35.20;;;16.23;;
21095;SDS011;10706;49.036;12.112;2022-08-19T12:26:19;27.92;;;15.55;;
21095;SDS011;10706;49.036;12.112;2022-08-19T12:28:46;27.27;;;15.55;;
21095;SDS011;10706;49.036;12.112;2022-08-19T12:31:13;34.60;;;16.10;;
21095;SDS011;10706;49.036;12.112;2022-08-19T12:33:40;36.72;;;17.88;;
21095;SDS011;10706;49.036;12.112;2022-08-19T12:36:09;49.97;;;18.23;;
21095;SDS011;10706;49.036;12.112;2022-08-19T12:38:37;34.38;;;18.27;;
21095;SDS011;10706;49.036;12.112;2022-08-19T12:41:04;37.53;;;19.35;;
21095;SDS011;10706;49.036;12.112;2022-08-19T12:43:32;37.72;;;19.75;;
21095;SDS011;10706;49.036;12.112;2022-08-19T12:45:59;33.85;;;18.58;;
21095;SDS011;10706;49.036;12.112;2022-08-19T12:48:26;36.55;;;19.25;;
21095;SDS011;10706;49.036;12.112;2022-08-19T12:50:52;35.90;;;18.08;;
21095;SDS011;10706;49.036;12.112;2022-08-19T12:53:19;34.13;;;18.17;;
21095;SDS011;10706;49.036;12.112;2022-08-19T12:55:44;27.10;;;16.55;;
21095;SDS011;10706;49.036;12.112;2022-08-19T12:58:11;27.65;;;16.52;;
21095;SDS011;10706;49.036;12.112;2022-08-19T13:00:37;31.17;;;16.13;;
21095;SDS011;10706;49.036;12.112;2022-08-19T13:03:07;27.95;;;16.40;;
21095;SDS011;10706;49.036;12.112;2022-08-19T13:05:33;26.15;;;16.35;;
21095;SDS011;10706;49.036;12.112;2022-08-19T13:07:59;28.10;;;15.32;;
21095;SDS011;10706;49.036;12.112;2022-08-19T13:10:28;24.08;;;15.73;;
21095;SDS011;10706;49.036;12.112;2022-08-19T13:13:05;27.52;;;15.48;;
21095;SDS011;10706;49.036;12.112;2022-08-19T13:15:35;26.85;;;15.32;;
21095;SDS011;10706;49.036;12.112;2022-08-19T13:18:04;26.17;;;14.45;;
21095;SDS011;10706;49.036;12.112;2022-08-19T13:20:31;27.00;;;14.52;;
21095;SDS011;10706;49.036;12.112;2022-08-19T13:22:57;25.05;;;13.90;;
21095;SDS011;10706;49.036;12.112;2022-08-19T13:25:23;27.70;;;15.20;;
21095;SDS011;10706;49.036;12.112;2022-08-19T13:27:50;27.52;;;15.95;;
21095;SDS011;10706;49.036;12.112;2022-08-19T13:30:17;28.10;;;14.68;;
21095;SDS011;10706;49.036;12.112;2022-08-19T13:33:03;25.83;;;14.57;;
21095;SDS011;10706;49.036;12.112;2022-08-19T13:35:36;24.10;;;14.60;;
21095;SDS011;10706;49.036;12.112;2022-08-19T13:38:15;28.35;;;15.20;;
21095;SDS011;10706;49.036;12.112;2022-08-19T13:40:45;22.80;;;13.98;;
21095;SDS011;10706;49.036;12.112;2022-08-19T13:43:14;28.90;;;16.15;;
21095;SDS011;10706;49.036;12.112;2022-08-19T13:45:46;29.90;;;16.52;;
21095;SDS011;10706;49.036;12.112;2022-08-19T13:48:13;28.63;;;16.27;;
21095;SDS011;10706;49.036;12.112;2022-08-19T13:50:40;27.33;;;15.52;;
21095;SDS011;10706;49.036;12.112;2022-08-19T13:53:11;28.25;;;16.77;;
21095;SDS011;10706;49.036;12.112;2022-08-19T13:55:38;30.52;;;16.75;;
21095;SDS011;10706;49.036;12.112;2022-08-19T13:58:07;25.92;;;16.42;;
21095;SDS011;10706;49.036;12.112;2022-08-19T14:00:36;28.10;;;16.52;;
21095;SDS011;10706;49.036;12.112;2022-08-19T14:03:05;26.00;;;16.33;;
21095;SDS011;10706;49.036;12.112;2022-08-19T14:05:32;25.42;;;15.02;;
21095;SDS011;10706;49.036;12.112;2022-08-19T14:07:59;22.88;;;14.32;;
21095;SDS011;10706;49.036;12.112;2022-08-19T14:10:25;26.45;;;14.93;;
21095;SDS011;10706;49.036;12.112;2022-08-19T14:12:53;24.30;;;14.32;;
21095;SDS011;10706;49.036;12.112;2022-08-19T14:15:23;21.13;;;12.80;;
21095;SDS011;10706;49.036;12.112;2022-08-19T14:17:49;21.60;;;13.90;;
21095;SDS011;10706;49.036;12.112;2022-08-19T14:20:16;20.80;;;12.60;;
21095;SDS011;10706;49.036;12.112;2022-08-19T14:22:43;21.50;;;13.10;;
21095;SDS011;10706;49.036;12.112;2022-08-19T14:25:12;22.23;;;12.70;;
21095;SDS011;10706;49.036;12.112;2022-08-19T14:27:45;20.98;;;12.20;;